Greenwood, Indiana
Current Conditions -  °F | °C
As of 4:54 PM on Sunday 23 Nov 2014 (Local Time) from KIND Reporting Station
Light Rain Light Rain  
Wind Chill: 51°   Ceiling: 700
Heat Index: 51°   Visibility: 1.5mi
Dew Point: 50°   Wind: 20mph
Humidity: 96%   Direction: 140°SE
Pressure: 29.46"   Gusts: NA
Location:  39.61°N, 86.11°W
Report Text: KIND 232154Z 14017KT 1 1/2SM -RA BR OVC007 11/10 A2946 RMK AO2 SFC VIS 4 SLP978 P0016 T01060100
Loading
Personal Weather Stations






























Interactive Weather Map New forecast layout! Learn more

10-Day Weather Forecast

Advertisements
Track Severe Weather on mobile